Jj Sky — VRJA6 — position and weather

sailwx.info

Track history (hours):
 
Tides and Currents Weather Stations Pressure Air Temp Water Temp Dewpoint Dewpoint Depression Visibility Wind Speed Wind Dir Waves Ship Positions

Jj Sky

Last reported at 2016-Aug-27 03:03 UTC. Time now 2016-Aug-29 18:08 UTC.
Position N 31°20' E 121°40'.

Length 148 m; draft 7.1 m.

Type: Ship (hazmat cat D). MMSI: 477397500.

Date/timePositionNaut miles runAvg speedWind from/ knotsBaromVisibWave heightAir tempDewpointWater temp
2016-Aug-27 03:03N 31°20' E 121°40'2 3.2
2016-Aug-27 02:30N 31°19' E 121°42'  
2016-Aug-24 04:20N 34°35' E 134°50'1316.2
2016-Aug-24 03:33N 34°36' E 135°05'8 8.5
2016-Aug-24 02:33N 34°39' E 135°15'0 0.0
2016-Aug-24 00:26N 34°39' E 135°15'0 0.0
2016-Aug-23 23:30N 34°39' E 135°15'0 0.0
2016-Aug-23 22:20N 34°39' E 135°15'5 6.9
2016-Aug-23 21:33N 34°39' E 135°21'3 2.0
2016-Aug-23 20:14N 34°39' E 135°24'0 0.0
2016-Aug-23 19:32N 34°39' E 135°24'0 0.0
2016-Aug-23 18:31N 34°39' E 135°24'0 0.0
2016-Aug-23 17:31N 34°39' E 135°24'0 0.0
2016-Aug-23 16:31N 34°39' E 135°24'0 0.0
2016-Aug-23 15:24N 34°39' E 135°24'0 0.0
2016-Aug-23 14:30N 34°39' E 135°24'0 0.0
2016-Aug-23 13:29N 34°39' E 135°24'0 0.0
2016-Aug-23 12:29N 34°39' E 135°24'0 0.0
2016-Aug-23 11:28N 34°39' E 135°24'0 0.0
2016-Aug-23 10:28N 34°39' E 135°24'0 0.0
2016-Aug-23 09:33N 34°39' E 135°24'0 0.0
2016-Aug-23 08:27N 34°39' E 135°24'0 0.0
2016-Aug-23 07:32N 34°39' E 135°24'0 0.0
2016-Aug-23 05:23N 34°39' E 135°24'0 0.0
2016-Aug-23 04:23N 34°39' E 135°24'0 0.0
2016-Aug-23 03:28N 34°39' E 135°24'0 0.0
2016-Aug-23 02:28N 34°39' E 135°24'0 0.0
2016-Aug-23 01:33N 34°39' E 135°24'0 0.0
2016-Aug-23 00:27N 34°39' E 135°24'0 0.0
2016-Aug-22 23:27N 34°39' E 135°24'0 0.1
2016-Aug-22 22:33N 34°39' E 135°24'6 6.1
2016-Aug-22 21:33N 34°36' E 135°18'1110.9
2016-Aug-22 20:33N 34°35' E 135°05'1614.2
2016-Aug-22 19:27N 34°32' E 134°46'  
2016-Aug-20 04:33N 31°20' E 121°40'  
Track history (hours):
 
Tides and Currents Weather Stations Pressure Air Temp Water Temp Dewpoint Dewpoint Depression Visibility Wind Speed Wind Dir Waves Ship Positions

Jj Sky

Last reported at 2016-Aug-27 03:03 UTC. Time now 2016-Aug-29 18:08 UTC.
Position N 31°20' E 121°40'.

Length 148 m; draft 7.1 m.

Type: Ship (hazmat cat D). MMSI: 477397500.

Date/timePositionNaut miles runAvg speedWind from/ knotsBaromVisibWave heightAir tempDewpointWater temp
2016-Aug-27 03:03N 31°20' E 121°40'2 3.2
2016-Aug-27 02:30N 31°19' E 121°42'  
2016-Aug-24 04:20N 34°35' E 134°50'1316.2
2016-Aug-24 03:33N 34°36' E 135°05'8 8.5
2016-Aug-24 02:33N 34°39' E 135°15'0 0.0
2016-Aug-24 00:26N 34°39' E 135°15'0 0.0
2016-Aug-23 23:30N 34°39' E 135°15'0 0.0
2016-Aug-23 22:20N 34°39' E 135°15'5 6.9
2016-Aug-23 21:33N 34°39' E 135°21'3 2.0
2016-Aug-23 20:14N 34°39' E 135°24'0 0.0
2016-Aug-23 19:32N 34°39' E 135°24'0 0.0
2016-Aug-23 18:31N 34°39' E 135°24'0 0.0
2016-Aug-23 17:31N 34°39' E 135°24'0 0.0
2016-Aug-23 16:31N 34°39' E 135°24'0 0.0
2016-Aug-23 15:24N 34°39' E 135°24'0 0.0
2016-Aug-23 14:30N 34°39' E 135°24'0 0.0
2016-Aug-23 13:29N 34°39' E 135°24'0 0.0
2016-Aug-23 12:29N 34°39' E 135°24'0 0.0
2016-Aug-23 11:28N 34°39' E 135°24'0 0.0
2016-Aug-23 10:28N 34°39' E 135°24'0 0.0
2016-Aug-23 09:33N 34°39' E 135°24'0 0.0
2016-Aug-23 08:27N 34°39' E 135°24'0 0.0
2016-Aug-23 07:32N 34°39' E 135°24'0 0.0
2016-Aug-23 05:23N 34°39' E 135°24'0 0.0
2016-Aug-23 04:23N 34°39' E 135°24'0 0.0
2016-Aug-23 03:28N 34°39' E 135°24'0 0.0
2016-Aug-23 02:28N 34°39' E 135°24'0 0.0
2016-Aug-23 01:33N 34°39' E 135°24'0 0.0
2016-Aug-23 00:27N 34°39' E 135°24'0 0.0
2016-Aug-22 23:27N 34°39' E 135°24'0 0.1
2016-Aug-22 22:33N 34°39' E 135°24'6 6.1
2016-Aug-22 21:33N 34°36' E 135°18'1110.9
2016-Aug-22 20:33N 34°35' E 135°05'1614.2
2016-Aug-22 19:27N 34°32' E 134°46'  
2016-Aug-20 04:33N 31°20' E 121°40'  

Dump ship's entire track history